< < Back
Terminal Aerodrome Forecast


Current Version              Previous Versions:   1  2  3  4  5  6  7  8  9  

Terminal Aerodrome Forecast

507
FTAK31 PAJN 300500
TAFAHN
TAF
PAHN 300526Z 3006/3106 VRB03KT P6SM SKC
     FM301200 30010KT P6SM SKC
     FM302200 13007KT P6SM FEW090 SCT150
     FM310400 VRB04KT P6SM SCT090 BKN100
      AMD LTD TO CLD VIS AND WIND=

Latest METAR

344
SAUS70 KWBC 300600 RRA
MTRAHN
METAR KAHN 300551Z AUTO VRB03KT 10SM CLR 19/16 A3016 RMK AO2 SLP208
T01940161 10267 20189 56003


USA.gov is the U.S. government's official web portal to all federal, state and local government web resources and services.